Time;durP1;ratioP1;P1;durP2;ratioP2;P2;SDS_P1;SDS_P2;PMS_P1;PMS_P2;Temp;Humidity;BMP_temperature;BMP_pressure;BME280_temperature;BME280_humidity;BME280_pressure;Samples;Min_cycle;Max_cycle;Signal;HPM_P1;HPM_P2
2024/02/04 00:01:10;;;;;;;19.93;13.17;;;;;;;;;;5121630;27;20478;-64
2024/02/04 00:03:37;;;;;;;22.80;13.73;;;;;;;;;;5123272;27;20514;-64
2024/02/04 00:06:06;;;;;;;19.13;13.47;;;;;;;;;;5120154;27;20454;-61
2024/02/04 00:08:32;;;;;;;19.97;12.33;;;;;;;;;;5113799;27;20471;-64
2024/02/04 00:10:59;;;;;;;17.53;11.90;;;;;;;;;;5116749;27;20457;-64
2024/02/04 00:13:26;;;;;;;17.13;10.90;;;;;;;;;;5130814;27;20442;-65
2024/02/04 00:15:54;;;;;;;17.90;11.30;;;;;;;;;;5119604;27;20450;-64
2024/02/04 00:18:20;;;;;;;17.30;11.43;;;;;;;;;;5116400;27;20476;-65
2024/02/04 00:20:47;;;;;;;13.60;10.90;;;;;;;;;;5121467;27;20470;-64
2024/02/04 00:23:15;;;;;;;16.37;10.70;;;;;;;;;;5126565;27;21000;-64
2024/02/04 00:25:42;;;;;;;20.40;11.63;;;;;;;;;;5122494;27;20477;-65
2024/02/04 00:28:11;;;;;;;14.40;9.47;;;;;;;;;;5124664;27;20438;-65
2024/02/04 00:30:37;;;;;;;15.10;9.67;;;;;;;;;;5118271;27;20480;-63
2024/02/04 00:33:04;;;;;;;15.10;9.73;;;;;;;;;;5123889;27;20463;-64
2024/02/04 00:35:31;;;;;;;15.10;8.67;;;;;;;;;;5126832;27;20453;-61
2024/02/04 00:37:58;;;;;;;11.77;8.90;;;;;;;;;;5120557;27;20562;-64
2024/02/04 00:40:26;;;;;;;13.83;9.00;;;;;;;;;;5113531;27;20482;-65
2024/02/04 00:42:52;;;;;;;13.40;9.20;;;;;;;;;;5122329;27;20602;-65
2024/02/04 00:45:19;;;;;;;11.37;8.60;;;;;;;;;;5133593;27;20449;-65
2024/02/04 00:47:45;;;;;;;11.20;7.87;;;;;;;;;;5117180;27;20466;-65
2024/02/04 00:50:12;;;;;;;15.00;8.07;;;;;;;;;;5109417;28;20450;-67
2024/02/04 00:52:39;;;;;;;11.67;7.50;;;;;;;;;;5116546;27;20431;-65
2024/02/04 00:55:06;;;;;;;13.37;8.10;;;;;;;;;;5120676;27;20476;-64
2024/02/04 00:57:34;;;;;;;10.33;7.70;;;;;;;;;;5103633;27;20693;-66
2024/02/04 01:00:02;;;;;;;10.67;7.63;;;;;;;;;;5111322;27;20466;-65
2024/02/04 01:02:29;;;;;;;8.40;7.23;;;;;;;;;;5126802;27;20488;-63
2024/02/04 01:04:56;;;;;;;12.47;7.07;;;;;;;;;;5117492;27;20453;-62
2024/02/04 01:07:22;;;;;;;12.60;7.53;;;;;;;;;;5108920;27;20451;-65
2024/02/04 01:09:49;;;;;;;15.50;8.30;;;;;;;;;;5124643;27;20458;-62
2024/02/04 01:12:15;;;;;;;10.87;7.60;;;;;;;;;;5114453;27;20462;-65
2024/02/04 01:14:43;;;;;;;11.20;6.90;;;;;;;;;;5116791;27;20537;-63
2024/02/04 01:17:10;;;;;;;11.03;7.70;;;;;;;;;;5120151;27;20473;-63
2024/02/04 01:19:36;;;;;;;12.17;7.70;;;;;;;;;;5118486;27;20508;-61
2024/02/04 01:22:03;;;;;;;11.73;7.60;;;;;;;;;;5110375;27;20442;-63
2024/02/04 01:24:31;;;;;;;9.37;7.17;;;;;;;;;;5117263;27;20493;-64
2024/02/04 01:26:57;;;;;;;12.17;8.07;;;;;;;;;;5126428;27;20457;-65
2024/02/04 01:29:24;;;;;;;15.40;8.10;;;;;;;;;;5109608;28;20468;-63
2024/02/04 01:31:52;;;;;;;12.50;7.80;;;;;;;;;;5114988;27;20453;-64
2024/02/04 01:34:18;;;;;;;14.37;8.83;;;;;;;;;;5129800;27;20448;-66
2024/02/04 01:36:44;;;;;;;12.50;8.70;;;;;;;;;;5114425;28;20446;-65
2024/02/04 01:39:11;;;;;;;12.17;8.90;;;;;;;;;;5113842;27;20515;-66
2024/02/04 01:41:37;;;;;;;12.40;8.83;;;;;;;;;;5121052;27;20480;-62
2024/02/04 01:44:04;;;;;;;11.37;9.10;;;;;;;;;;5103768;27;20474;-64
2024/02/04 01:46:32;;;;;;;11.27;8.30;;;;;;;;;;5114354;28;20453;-63
2024/02/04 01:49:00;;;;;;;10.03;7.67;;;;;;;;;;5120363;27;20480;-65
2024/02/04 01:51:27;;;;;;;11.03;8.30;;;;;;;;;;5122430;27;20490;-65
2024/02/04 01:53:52;;;;;;;11.40;7.80;;;;;;;;;;5116991;27;20485;-64
2024/02/04 01:56:20;;;;;;;10.43;6.97;;;;;;;;;;5116404;27;20459;-63
2024/02/04 01:58:48;;;;;;;12.30;8.17;;;;;;;;;;5107967;27;20195;-65
2024/02/04 02:01:15;;;;;;;12.87;8.00;;;;;;;;;;5109379;27;20455;-64
2024/02/04 02:03:42;;;;;;;11.50;8.07;;;;;;;;;;5121153;27;20481;-64
2024/02/04 02:06:10;;;;;;;17.13;11.00;;;;;;;;;;5115368;28;20447;-65
2024/02/04 02:08:37;;;;;;;14.97;10.30;;;;;;;;;;5115176;28;20846;-66
2024/02/04 02:11:06;;;;;;;16.37;9.80;;;;;;;;;;5114112;27;20457;-62
2024/02/04 02:13:34;;;;;;;12.83;9.20;;;;;;;;;;5116935;27;20923;-65
2024/02/04 02:16:05;;;;;;;10.63;8.67;;;;;;;;;;5122171;27;20450;-66
2024/02/04 02:18:37;;;;;;;12.73;8.47;;;;;;;;;;5119343;27;20504;-64
2024/02/04 02:21:25;;;;;;;9.03;6.90;;;;;;;;;;5114396;28;20446;-66
2024/02/04 02:24:00;;;;;;;11.30;7.90;;;;;;;;;;5119660;27;20486;-65
2024/02/04 02:26:28;;;;;;;11.20;7.43;;;;;;;;;;5116311;28;20468;-66
2024/02/04 02:28:54;;;;;;;10.90;7.63;;;;;;;;;;5103971;27;20479;-66
2024/02/04 02:31:21;;;;;;;9.47;7.10;;;;;;;;;;5110993;28;20450;-65
2024/02/04 02:33:48;;;;;;;15.07;7.60;;;;;;;;;;5116862;28;20646;-65
2024/02/04 02:36:17;;;;;;;10.93;7.97;;;;;;;;;;5119874;27;20487;-65
2024/02/04 02:38:47;;;;;;;10.13;7.57;;;;;;;;;;5122535;27;20518;-62
2024/02/04 02:41:14;;;;;;;11.60;7.10;;;;;;;;;;5107121;28;20455;-65
2024/02/04 02:43:43;;;;;;;9.63;7.60;;;;;;;;;;5115174;28;20509;-64
2024/02/04 02:46:10;;;;;;;11.20;7.57;;;;;;;;;;5113406;28;20829;-64
2024/02/04 02:48:35;;;;;;;9.67;7.50;;;;;;;;;;5122590;28;20446;-66
2024/02/04 02:51:02;;;;;;;12.63;7.47;;;;;;;;;;5124663;28;20471;-61
2024/02/04 02:53:29;;;;;;;10.17;6.93;;;;;;;;;;5118922;28;20235;-62
2024/02/04 02:55:56;;;;;;;8.30;6.80;;;;;;;;;;5114078;28;20466;-65
2024/02/04 02:58:22;;;;;;;10.03;6.50;;;;;;;;;;5124487;28;20481;-64
2024/02/04 03:00:50;;;;;;;10.03;7.20;;;;;;;;;;5116401;28;20471;-65
2024/02/04 03:03:16;;;;;;;9.23;7.17;;;;;;;;;;5121576;28;20516;-65
2024/02/04 03:05:43;;;;;;;10.40;7.03;;;;;;;;;;5121847;28;20486;-64
2024/02/04 03:08:09;;;;;;;8.23;6.17;;;;;;;;;;5104752;28;20887;-64
2024/02/04 03:10:36;;;;;;;8.33;6.43;;;;;;;;;;5115870;27;20441;-65
2024/02/04 03:13:02;;;;;;;8.80;5.90;;;;;;;;;;5121163;27;20485;-64
2024/02/04 03:15:29;;;;;;;9.33;6.50;;;;;;;;;;5119480;27;20454;-63
2024/02/04 03:17:56;;;;;;;8.67;5.80;;;;;;;;;;5125474;27;20482;-62
2024/02/04 03:20:23;;;;;;;6.90;5.30;;;;;;;;;;5118164;27;20933;-65
2024/02/04 03:22:49;;;;;;;6.00;4.90;;;;;;;;;;5124589;27;20952;-62
2024/02/04 03:25:16;;;;;;;7.00;5.30;;;;;;;;;;5120888;27;20529;-63
2024/02/04 03:27:44;;;;;;;7.37;5.20;;;;;;;;;;5125529;27;20493;-63
2024/02/04 03:30:10;;;;;;;7.47;5.33;;;;;;;;;;5115849;27;20519;-65
2024/02/04 03:32:37;;;;;;;8.30;5.97;;;;;;;;;;5121184;27;20438;-66
2024/02/04 03:35:05;;;;;;;11.20;8.00;;;;;;;;;;5116616;27;20466;-65
2024/02/04 03:37:32;;;;;;;9.97;6.80;;;;;;;;;;5121326;27;20467;-66
2024/02/04 03:39:59;;;;;;;10.53;7.07;;;;;;;;;;5118978;27;20490;-65
2024/02/04 03:42:25;;;;;;;13.00;7.40;;;;;;;;;;5117721;27;20448;-68
2024/02/04 03:44:52;;;;;;;11.33;7.47;;;;;;;;;;5123368;27;20529;-62
2024/02/04 03:47:18;;;;;;;10.43;7.90;;;;;;;;;;5119903;27;20438;-63
2024/02/04 03:49:45;;;;;;;13.43;8.47;;;;;;;;;;5127569;27;20453;-63
2024/02/04 03:52:14;;;;;;;12.00;8.90;;;;;;;;;;5119889;27;20470;-65
2024/02/04 03:54:41;;;;;;;11.60;8.40;;;;;;;;;;5120548;27;20927;-64
2024/02/04 03:57:07;;;;;;;12.67;8.20;;;;;;;;;;5127679;27;20465;-63
2024/02/04 03:59:34;;;;;;;12.00;9.23;;;;;;;;;;5115930;27;20451;-63
2024/02/04 04:02:00;;;;;;;13.83;9.67;;;;;;;;;;5127226;27;20473;-64
2024/02/04 04:04:27;;;;;;;14.20;9.77;;;;;;;;;;5123630;27;20523;-63
2024/02/04 04:06:53;;;;;;;13.70;10.03;;;;;;;;;;5118641;27;20805;-65
2024/02/04 04:09:21;;;;;;;12.70;9.63;;;;;;;;;;5118199;27;20478;-66
2024/02/04 04:11:48;;;;;;;15.10;10.23;;;;;;;;;;5124063;27;20460;-64
2024/02/04 04:14:14;;;;;;;15.30;10.37;;;;;;;;;;5119413;27;20797;-64
2024/02/04 04:16:41;;;;;;;11.93;8.47;;;;;;;;;;5118726;27;20453;-65
2024/02/04 04:19:07;;;;;;;11.53;8.70;;;;;;;;;;5122703;27;20478;-66
2024/02/04 04:21:35;;;;;;;11.97;8.77;;;;;;;;;;5120889;27;20480;-65
2024/02/04 04:24:02;;;;;;;12.97;8.30;;;;;;;;;;5114714;27;20788;-66
2024/02/04 04:26:30;;;;;;;11.33;7.90;;;;;;;;;;5115289;27;20458;-64
2024/02/04 04:28:56;;;;;;;10.93;8.40;;;;;;;;;;5114934;27;20479;-65
2024/02/04 04:31:22;;;;;;;12.40;7.60;;;;;;;;;;5118496;27;20455;-65
2024/02/04 04:33:49;;;;;;;11.10;7.27;;;;;;;;;;5123186;27;20493;-65
2024/02/04 04:36:15;;;;;;;8.47;6.87;;;;;;;;;;5121747;27;20477;-63
2024/02/04 04:38:42;;;;;;;8.27;3.73;;;;;;;;;;5109039;27;20701;-62
2024/02/04 04:41:08;;;;;;;5.60;4.80;;;;;;;;;;5122035;27;20946;-64
2024/02/04 04:43:39;;;;;;;7.50;4.40;;;;;;;;;;5113086;27;20439;-62
2024/02/04 04:46:05;;;;;;;5.90;4.77;;;;;;;;;;5115503;27;20558;-65
2024/02/04 04:48:32;;;;;;;8.17;4.77;;;;;;;;;;5115677;27;20818;-65
2024/02/04 04:50:58;;;;;;;5.10;4.60;;;;;;;;;;5118344;27;20483;-66
2024/02/04 04:53:25;;;;;;;6.80;5.50;;;;;;;;;;5127234;27;20466;-66
2024/02/04 04:55:51;;;;;;;5.93;4.70;;;;;;;;;;5121857;27;20993;-64
2024/02/04 04:58:17;;;;;;;5.60;4.47;;;;;;;;;;5115601;27;20472;-65
2024/02/04 05:00:45;;;;;;;7.73;5.57;;;;;;;;;;5122936;27;20490;-65
2024/02/04 05:03:12;;;;;;;5.27;4.60;;;;;;;;;;5121050;27;20493;-64
2024/02/04 05:05:38;;;;;;;7.50;4.33;;;;;;;;;;5108894;27;20514;-64
2024/02/04 05:08:05;;;;;;;6.13;4.23;;;;;;;;;;5116519;27;20470;-63
2024/02/04 05:10:31;;;;;;;6.57;5.03;;;;;;;;;;5117635;27;20490;-65
2024/02/04 05:12:58;;;;;;;5.40;4.73;;;;;;;;;;5117426;27;20523;-63
2024/02/04 05:15:25;;;;;;;5.60;4.17;;;;;;;;;;5112470;27;20803;-66
2024/02/04 05:17:53;;;;;;;7.43;4.10;;;;;;;;;;5111669;27;20455;-60
2024/02/04 05:20:19;;;;;;;6.43;3.90;;;;;;;;;;5121181;27;20466;-64
2024/02/04 05:22:46;;;;;;;7.00;4.27;;;;;;;;;;5120563;27;20449;-64
2024/02/04 05:25:12;;;;;;;5.50;4.00;;;;;;;;;;5112472;27;20486;-64
2024/02/04 05:27:39;;;;;;;6.00;4.60;;;;;;;;;;5115214;27;20862;-64
2024/02/04 05:30:06;;;;;;;6.03;4.17;;;;;;;;;;5128054;27;20496;-62
2024/02/04 05:32:32;;;;;;;7.00;4.83;;;;;;;;;;5124834;27;20450;-62
2024/02/04 05:35:00;;;;;;;5.70;4.10;;;;;;;;;;5122056;27;20450;-64
2024/02/04 05:37:27;;;;;;;5.63;4.07;;;;;;;;;;5113487;27;20517;-64
2024/02/04 05:39:53;;;;;;;6.60;4.47;;;;;;;;;;5119401;27;20839;-64
2024/02/04 05:42:19;;;;;;;5.47;3.77;;;;;;;;;;5122102;27;20947;-64
2024/02/04 05:44:46;;;;;;;6.70;4.30;;;;;;;;;;5120627;27;20504;-64
2024/02/04 05:47:12;;;;;;;5.10;4.07;;;;;;;;;;5116515;28;20466;-64
2024/02/04 05:49:39;;;;;;;5.73;4.10;;;;;;;;;;5126118;27;20506;-64
2024/02/04 05:52:09;;;;;;;6.70;5.33;;;;;;;;;;5119322;27;20504;-64
2024/02/04 05:54:38;;;;;;;7.07;3.73;;;;;;;;;;5109306;28;20447;-60
2024/02/04 05:57:04;;;;;;;7.27;3.77;;;;;;;;;;5118220;27;20450;-63
2024/02/04 05:59:31;;;;;;;4.60;4.13;;;;;;;;;;5113309;27;20775;-62
2024/02/04 06:01:57;;;;;;;7.20;3.50;;;;;;;;;;5114061;27;20458;-63
2024/02/04 06:04:24;;;;;;;4.87;3.70;;;;;;;;;;5115211;27;20520;-65
2024/02/04 06:06:50;;;;;;;5.23;3.13;;;;;;;;;;5126899;27;20477;-62
2024/02/04 06:09:18;;;;;;;4.30;4.00;;;;;;;;;;5112652;27;20446;-63
2024/02/04 06:11:45;;;;;;;6.00;3.50;;;;;;;;;;5119101;27;20442;-64
2024/02/04 06:14:12;;;;;;;3.87;3.50;;;;;;;;;;5123679;27;20541;-65
2024/02/04 06:16:38;;;;;;;3.40;3.10;;;;;;;;;;5114944;27;20478;-65
2024/02/04 06:19:05;;;;;;;8.10;3.40;;;;;;;;;;5120871;27;20471;-65
2024/02/04 06:21:32;;;;;;;3.90;2.80;;;;;;;;;;5115406;27;20857;-63
2024/02/04 06:23:58;;;;;;;6.93;3.93;;;;;;;;;;5116353;27;20447;-64
2024/02/04 06:26:25;;;;;;;3.70;3.40;;;;;;;;;;5123435;27;20462;-64
2024/02/04 06:28:52;;;;;;;4.43;3.43;;;;;;;;;;5108094;28;20449;-59
2024/02/04 06:31:19;;;;;;;4.77;3.27;;;;;;;;;;5114156;28;20503;-62
2024/02/04 06:33:45;;;;;;;9.07;3.40;;;;;;;;;;5118618;27;20448;-63
2024/02/04 06:36:12;;;;;;;3.03;2.73;;;;;;;;;;5118174;28;20461;-64
2024/02/04 06:38:38;;;;;;;9.50;3.10;;;;;;;;;;5118140;28;20509;-64
2024/02/04 06:41:05;;;;;;;3.57;3.23;;;;;;;;;;5119400;27;20473;-64
2024/02/04 06:43:33;;;;;;;4.20;3.80;;;;;;;;;;5120103;28;20473;-65
2024/02/04 06:45:59;;;;;;;4.20;3.80;;;;;;;;;;5120488;27;20485;-65
2024/02/04 06:48:26;;;;;;;6.47;4.10;;;;;;;;;;5125472;27;20515;-64
2024/02/04 06:50:52;;;;;;;4.20;3.80;;;;;;;;;;5122180;27;20509;-64
2024/02/04 06:53:19;;;;;;;4.13;3.80;;;;;;;;;;5114665;27;20504;-63
2024/02/04 06:55:45;;;;;;;7.87;3.93;;;;;;;;;;5116045;27;20507;-64
2024/02/04 06:58:12;;;;;;;5.47;4.30;;;;;;;;;;5111385;28;20512;-63
2024/02/04 07:00:40;;;;;;;6.80;4.73;;;;;;;;;;5122019;27;20466;-63
2024/02/04 07:03:06;;;;;;;4.43;3.97;;;;;;;;;;5119560;27;20499;-62
2024/02/04 07:05:33;;;;;;;7.47;4.40;;;;;;;;;;5116659;27;20485;-64
2024/02/04 07:08:00;;;;;;;4.37;3.97;;;;;;;;;;5118097;27;20485;-65
2024/02/04 07:10:26;;;;;;;9.03;6.50;;;;;;;;;;5119322;27;20479;-64
2024/02/04 07:12:53;;;;;;;6.33;5.63;;;;;;;;;;5117759;27;20482;-65
2024/02/04 07:15:19;;;;;;;7.00;5.60;;;;;;;;;;5118276;27;20484;-61
2024/02/04 07:17:47;;;;;;;7.47;5.37;;;;;;;;;;5115211;28;20473;-63
2024/02/04 07:20:13;;;;;;;7.47;5.90;;;;;;;;;;5111765;27;20481;-63
2024/02/04 07:22:40;;;;;;;6.53;5.37;;;;;;;;;;5118423;27;21473;-65
2024/02/04 07:25:07;;;;;;;7.50;4.97;;;;;;;;;;5110480;27;20490;-64
2024/02/04 07:27:33;;;;;;;7.93;5.03;;;;;;;;;;5116824;27;20445;-64
2024/02/04 07:30:00;;;;;;;6.80;6.10;;;;;;;;;;5114848;27;20477;-64
2024/02/04 07:32:26;;;;;;;17.73;5.90;;;;;;;;;;5117169;27;21006;-65
2024/02/04 07:34:55;;;;;;;6.03;4.20;;;;;;;;;;5122765;27;20487;-64
2024/02/04 07:37:22;;;;;;;6.67;4.50;;;;;;;;;;5116923;27;21020;-62
2024/02/04 07:39:48;;;;;;;9.97;5.03;;;;;;;;;;5112265;27;20539;-62
2024/02/04 07:42:14;;;;;;;5.80;5.27;;;;;;;;;;5108572;27;20481;-63
2024/02/04 07:44:41;;;;;;;10.80;4.37;;;;;;;;;;5115515;27;20517;-65
2024/02/04 07:47:07;;;;;;;9.70;4.77;;;;;;;;;;5115115;27;20455;-63
2024/02/04 07:49:34;;;;;;;4.73;4.23;;;;;;;;;;5119145;27;20541;-63
2024/02/04 07:52:02;;;;;;;10.40;4.13;;;;;;;;;;5119111;27;20494;-64
2024/02/04 07:54:28;;;;;;;5.90;4.40;;;;;;;;;;5121739;27;20461;-62
2024/02/04 07:56:55;;;;;;;7.33;4.90;;;;;;;;;;5119244;27;20454;-64
2024/02/04 07:59:21;;;;;;;5.10;4.27;;;;;;;;;;5117367;27;20466;-65
2024/02/04 08:01:48;;;;;;;10.33;4.33;;;;;;;;;;5118272;27;20624;-65
2024/02/04 08:04:15;;;;;;;6.43;4.10;;;;;;;;;;5122607;27;20469;-62
2024/02/04 08:06:41;;;;;;;8.73;4.37;;;;;;;;;;5113722;27;20801;-63
2024/02/04 08:09:09;;;;;;;8.00;4.10;;;;;;;;;;5116995;27;20478;-66
2024/02/04 08:11:36;;;;;;;8.40;4.73;;;;;;;;;;5117211;27;20464;-63
2024/02/04 08:14:02;;;;;;;5.20;3.80;;;;;;;;;;5121349;27;20489;-63
2024/02/04 08:16:29;;;;;;;6.53;4.17;;;;;;;;;;5112824;27;20462;-63
2024/02/04 08:18:56;;;;;;;6.63;3.87;;;;;;;;;;5107648;28;20439;-64
2024/02/04 08:21:22;;;;;;;8.80;4.10;;;;;;;;;;5124308;27;20500;-64
2024/02/04 08:23:49;;;;;;;8.40;5.00;;;;;;;;;;5119756;28;20477;-63
2024/02/04 08:26:17;;;;;;;6.70;3.77;;;;;;;;;;5120022;28;20505;-63
2024/02/04 08:28:43;;;;;;;9.00;3.97;;;;;;;;;;5118918;27;20450;-62
2024/02/04 08:31:10;;;;;;;8.00;4.00;;;;;;;;;;5109353;27;20459;-64
2024/02/04 08:33:37;;;;;;;7.20;3.30;;;;;;;;;;5119013;27;20870;-66
2024/02/04 08:36:06;;;;;;;6.40;3.90;;;;;;;;;;5114960;27;20465;-66
2024/02/04 08:38:32;;;;;;;6.97;4.37;;;;;;;;;;5118217;27;20497;-62
2024/02/04 08:40:59;;;;;;;8.50;4.30;;;;;;;;;;5119640;27;20458;-63
2024/02/04 08:43:27;;;;;;;8.50;3.73;;;;;;;;;;5110280;28;20531;-65
2024/02/04 08:45:53;;;;;;;5.73;3.83;;;;;;;;;;5115416;27;20510;-62
2024/02/04 08:48:20;;;;;;;8.33;3.47;;;;;;;;;;5120151;27;20481;-64
2024/02/04 08:50:46;;;;;;;8.00;3.77;;;;;;;;;;5110451;27;20926;-65
2024/02/04 08:53:13;;;;;;;9.93;3.97;;;;;;;;;;5106787;28;20447;-63
2024/02/04 08:55:39;;;;;;;5.80;4.23;;;;;;;;;;5114183;28;20966;-64
2024/02/04 08:58:06;;;;;;;7.27;4.20;;;;;;;;;;5112174;27;20446;-63
2024/02/04 09:00:34;;;;;;;7.90;4.37;;;;;;;;;;5117413;27;20494;-63
2024/02/04 09:03:01;;;;;;;8.40;5.33;;;;;;;;;;5126999;27;20482;-63
2024/02/04 09:05:28;;;;;;;4.00;3.70;;;;;;;;;;5128094;27;20990;-63
2024/02/04 09:07:55;;;;;;;7.27;4.40;;;;;;;;;;5110684;27;20461;-71
2024/02/04 09:10:21;;;;;;;7.27;4.87;;;;;;;;;;5115035;27;20970;-68
2024/02/04 09:12:48;;;;;;;11.40;4.47;;;;;;;;;;5127162;27;20449;-67
2024/02/04 09:15:14;;;;;;;5.27;4.17;;;;;;;;;;5115131;27;20519;-68
2024/02/04 09:17:42;;;;;;;5.90;4.40;;;;;;;;;;5118939;27;20927;-66
2024/02/04 09:20:09;;;;;;;5.07;3.87;;;;;;;;;;5112390;28;20458;-66
2024/02/04 09:22:35;;;;;;;5.30;4.33;;;;;;;;;;5109666;27;21401;-64
2024/02/04 09:25:02;;;;;;;6.00;4.40;;;;;;;;;;5113101;28;20446;-66
2024/02/04 09:27:29;;;;;;;4.63;4.30;;;;;;;;;;5116902;27;20526;-64
2024/02/04 09:29:56;;;;;;;4.40;4.00;;;;;;;;;;5112304;27;20504;-63
2024/02/04 09:32:22;;;;;;;11.57;4.47;;;;;;;;;;5115481;28;20533;-65
2024/02/04 09:34:50;;;;;;;7.33;4.50;;;;;;;;;;5115748;28;20445;-62
2024/02/04 09:37:17;;;;;;;6.10;4.00;;;;;;;;;;5120000;27;20446;-64
2024/02/04 09:39:43;;;;;;;8.90;4.87;;;;;;;;;;5107893;28;20475;-61
2024/02/04 09:42:11;;;;;;;6.17;4.23;;;;;;;;;;5099929;28;20498;-64
2024/02/04 09:44:38;;;;;;;9.03;4.03;;;;;;;;;;5098216;28;20471;-63
2024/02/04 09:47:06;;;;;;;6.83;3.93;;;;;;;;;;5098984;28;20483;-63
2024/02/04 09:49:32;;;;;;;5.63;4.80;;;;;;;;;;5101151;28;20485;-64
2024/02/04 09:52:03;;;;;;;6.37;4.20;;;;;;;;;;5097493;28;20916;-62
2024/02/04 09:54:30;;;;;;;6.30;4.30;;;;;;;;;;5097837;28;20460;-63
2024/02/04 09:56:57;;;;;;;8.53;4.50;;;;;;;;;;5103443;28;20935;-65
2024/02/04 09:59:24;;;;;;;4.60;4.10;;;;;;;;;;5103889;28;20942;-62
2024/02/04 10:01:51;;;;;;;4.40;4.00;;;;;;;;;;5102502;28;20480;-62
2024/02/04 10:04:17;;;;;;;4.87;4.30;;;;;;;;;;5099151;28;20454;-64
2024/02/04 10:06:43;;;;;;;5.33;4.03;;;;;;;;;;5097790;28;20482;-64
2024/02/04 10:09:12;;;;;;;3.87;3.57;;;;;;;;;;5100232;28;20500;-64
2024/02/04 10:11:38;;;;;;;4.70;4.30;;;;;;;;;;5096919;28;20510;-63
2024/02/04 10:14:06;;;;;;;9.53;4.80;;;;;;;;;;5088951;28;20489;-64
2024/02/04 10:16:33;;;;;;;6.90;6.30;;;;;;;;;;5085651;28;20462;-65
2024/02/04 10:19:02;;;;;;;4.30;3.90;;;;;;;;;;5099420;28;20474;-64
2024/02/04 10:21:30;;;;;;;4.97;3.70;;;;;;;;;;5098815;28;20454;-64
2024/02/04 10:23:57;;;;;;;4.07;3.50;;;;;;;;;;5102794;28;20450;-62
2024/02/04 10:26:30;;;;;;;6.87;4.17;;;;;;;;;;5102840;28;20491;-63
2024/02/04 10:28:58;;;;;;;7.03;5.37;;;;;;;;;;5101187;28;20543;-64
2024/02/04 10:31:25;;;;;;;4.60;4.10;;;;;;;;;;5105603;28;20458;-64
2024/02/04 10:33:51;;;;;;;4.20;3.33;;;;;;;;;;5098359;28;20459;-65
2024/02/04 10:36:18;;;;;;;7.50;4.30;;;;;;;;;;5099644;28;20747;-61
2024/02/04 10:38:45;;;;;;;6.23;4.63;;;;;;;;;;5099885;28;20487;-61
2024/02/04 10:41:15;;;;;;;4.30;4.00;;;;;;;;;;5113317;27;20466;-63
2024/02/04 10:43:43;;;;;;;6.33;4.70;;;;;;;;;;5120534;28;20458;-65
2024/02/04 10:46:10;;;;;;;4.50;4.20;;;;;;;;;;5121370;28;20490;-62
2024/02/04 10:48:41;;;;;;;5.57;4.00;;;;;;;;;;5127481;28;20433;-64
2024/02/04 10:51:10;;;;;;;4.37;4.07;;;;;;;;;;5120777;28;20458;-65
2024/02/04 10:53:36;;;;;;;6.50;3.90;;;;;;;;;;5115090;28;20466;-65
2024/02/04 10:56:04;;;;;;;7.13;4.37;;;;;;;;;;5114374;28;20477;-66
2024/02/04 10:58:31;;;;;;;4.50;3.97;;;;;;;;;;5114720;28;20442;-63
2024/02/04 11:00:59;;;;;;;6.47;3.90;;;;;;;;;;5116143;28;20486;-64
2024/02/04 11:03:27;;;;;;;5.53;4.90;;;;;;;;;;5112522;28;20450;-65
2024/02/04 11:05:54;;;;;;;4.30;3.93;;;;;;;;;;5114854;28;20515;-62
2024/02/04 11:08:22;;;;;;;4.20;3.77;;;;;;;;;;5115418;28;20478;-62
2024/02/04 11:10:48;;;;;;;4.23;3.83;;;;;;;;;;5112764;28;20480;-64
2024/02/04 11:13:16;;;;;;;4.67;3.70;;;;;;;;;;5114384;28;20482;-64
2024/02/04 11:15:44;;;;;;;6.90;6.23;;;;;;;;;;5115206;28;20450;-66
2024/02/04 11:18:22;;;;;;;7.60;6.90;;;;;;;;;;5116705;28;20902;-65
2024/02/04 11:20:58;;;;;;;7.23;6.83;;;;;;;;;;5109191;28;20479;-64
2024/02/04 11:23:33;;;;;;;9.63;8.83;;;;;;;;;;5109056;28;20465;-70
2024/02/04 11:26:00;;;;;;;8.40;7.90;;;;;;;;;;5109346;28;20522;-68
2024/02/04 11:28:27;;;;;;;9.50;8.90;;;;;;;;;;5105907;28;20640;-65
2024/02/04 11:30:54;;;;;;;8.70;8.20;;;;;;;;;;5111322;28;20512;-66
2024/02/04 11:33:24;;;;;;;8.37;7.77;;;;;;;;;;5106405;28;20861;-66
2024/02/04 11:36:00;;;;;;;5.80;5.20;;;;;;;;;;5118475;27;20454;-66
2024/02/04 11:38:30;;;;;;;6.00;4.73;;;;;;;;;;5112668;27;20481;-65
2024/02/04 11:40:57;;;;;;;6.37;5.20;;;;;;;;;;5120392;27;20464;-68
2024/02/04 11:43:24;;;;;;;4.63;4.27;;;;;;;;;;5113173;27;20440;-62
2024/02/04 11:45:53;;;;;;;5.30;4.53;;;;;;;;;;5119769;27;20450;-64
2024/02/04 11:48:20;;;;;;;8.07;5.30;;;;;;;;;;5117849;27;20449;-60
2024/02/04 11:50:53;;;;;;;7.17;5.23;;;;;;;;;;5113481;27;20651;-62
2024/02/04 11:53:19;;;;;;;5.60;5.20;;;;;;;;;;5117307;27;20995;-63
2024/02/04 11:55:46;;;;;;;6.57;5.97;;;;;;;;;;5122895;27;20491;-67
2024/02/04 11:58:13;;;;;;;6.70;5.27;;;;;;;;;;5123962;27;20458;-64
2024/02/04 12:00:43;;;;;;;5.90;4.97;;;;;;;;;;5120050;27;20483;-67
2024/02/04 12:03:09;;;;;;;5.80;5.20;;;;;;;;;;5118526;27;20490;-63
2024/02/04 12:05:36;;;;;;;6.93;5.50;;;;;;;;;;5119441;27;20454;-72
2024/02/04 12:08:05;;;;;;;8.63;6.10;;;;;;;;;;5117901;27;20759;-67
2024/02/04 12:10:32;;;;;;;6.27;5.57;;;;;;;;;;5124155;27;20454;-64
2024/02/04 12:12:59;;;;;;;6.93;6.10;;;;;;;;;;5119525;27;20533;-65
2024/02/04 12:15:26;;;;;;;10.47;5.67;;;;;;;;;;5119172;27;20484;-67
2024/02/04 12:17:53;;;;;;;8.23;5.20;;;;;;;;;;5111132;27;20451;-65
2024/02/04 12:20:19;;;;;;;8.73;5.53;;;;;;;;;;5118042;27;20511;-67
2024/02/04 12:22:46;;;;;;;6.70;4.60;;;;;;;;;;5116174;27;20477;-65
2024/02/04 12:25:14;;;;;;;10.70;5.80;;;;;;;;;;5124065;27;20458;-67
2024/02/04 12:27:41;;;;;;;6.30;5.70;;;;;;;;;;5122175;27;20489;-64
2024/02/04 12:30:08;;;;;;;6.83;5.93;;;;;;;;;;5121695;27;20442;-67
2024/02/04 12:32:36;;;;;;;9.50;6.80;;;;;;;;;;5120913;27;20499;-66
2024/02/04 12:35:03;;;;;;;7.20;6.00;;;;;;;;;;5122374;27;20486;-64
2024/02/04 12:37:30;;;;;;;8.33;6.20;;;;;;;;;;5121510;27;20484;-65
2024/02/04 12:39:58;;;;;;;9.80;6.27;;;;;;;;;;5123449;27;20485;-65
2024/02/04 12:42:26;;;;;;;11.53;8.70;;;;;;;;;;5124149;27;20462;-65
2024/02/04 12:44:52;;;;;;;7.57;6.83;;;;;;;;;;5128433;27;20477;-68
2024/02/04 12:47:20;;;;;;;13.30;7.30;;;;;;;;;;5124994;27;20833;-69
2024/02/04 12:49:46;;;;;;;9.47;7.10;;;;;;;;;;5129436;27;20991;-66
2024/02/04 12:52:12;;;;;;;8.93;6.80;;;;;;;;;;5125507;27;20456;-67
2024/02/04 12:54:42;;;;;;;8.67;6.33;;;;;;;;;;5123221;27;20442;-69
2024/02/04 12:57:10;;;;;;;10.30;6.80;;;;;;;;;;5123518;27;20443;-66
2024/02/04 12:59:38;;;;;;;7.50;5.33;;;;;;;;;;5120628;27;20453;-69
2024/02/04 13:02:05;;;;;;;10.00;7.63;;;;;;;;;;5127677;27;20457;-67
2024/02/04 13:04:35;;;;;;;8.97;6.77;;;;;;;;;;5114960;27;20971;-61
2024/02/04 13:07:01;;;;;;;7.13;5.60;;;;;;;;;;5117818;27;20482;-62
2024/02/04 13:09:28;;;;;;;9.80;6.40;;;;;;;;;;5115453;27;20469;-63
2024/02/04 13:12:03;;;;;;;8.73;6.43;;;;;;;;;;5120665;27;20483;-63
2024/02/04 13:14:29;;;;;;;9.50;6.10;;;;;;;;;;5110727;27;20454;-64
2024/02/04 13:16:58;;;;;;;7.47;5.33;;;;;;;;;;5123296;27;20511;-62
2024/02/04 13:19:24;;;;;;;6.90;6.17;;;;;;;;;;5123959;27;20445;-62
2024/02/04 13:21:51;;;;;;;7.60;5.60;;;;;;;;;;5117871;27;20456;-63
2024/02/04 13:24:18;;;;;;;12.10;6.27;;;;;;;;;;5117799;27;20442;-63
2024/02/04 13:26:44;;;;;;;5.97;5.33;;;;;;;;;;5117499;27;20481;-62
2024/02/04 13:29:11;;;;;;;6.23;5.27;;;;;;;;;;5115689;27;20442;-64
2024/02/04 13:31:37;;;;;;;6.70;5.73;;;;;;;;;;5109390;27;20477;-62
2024/02/04 13:34:06;;;;;;;7.10;5.73;;;;;;;;;;5101904;28;20492;-64
2024/02/04 13:36:32;;;;;;;7.13;5.30;;;;;;;;;;5110889;27;20497;-62
2024/02/04 13:38:59;;;;;;;6.53;5.40;;;;;;;;;;5113663;27;20554;-62
2024/02/04 13:41:25;;;;;;;10.27;5.63;;;;;;;;;;5106339;28;20467;-65
2024/02/04 13:43:52;;;;;;;7.97;5.60;;;;;;;;;;5114419;27;20461;-63
2024/02/04 13:46:18;;;;;;;6.53;5.87;;;;;;;;;;5115539;27;20461;-63
2024/02/04 13:48:45;;;;;;;7.10;5.40;;;;;;;;;;5114949;27;20433;-64
2024/02/04 13:51:13;;;;;;;6.40;5.10;;;;;;;;;;5110976;27;20572;-61
2024/02/04 13:53:40;;;;;;;7.20;5.10;;;;;;;;;;5114307;27;20745;-64
2024/02/04 13:56:07;;;;;;;5.50;3.90;;;;;;;;;;5115210;27;20457;-63
2024/02/04 13:58:33;;;;;;;5.60;4.40;;;;;;;;;;5111860;28;20510;-61
2024/02/04 14:01:00;;;;;;;6.73;3.87;;;;;;;;;;5108424;27;20451;-63
2024/02/04 14:03:27;;;;;;;7.57;4.60;;;;;;;;;;5118590;27;20439;-62
2024/02/04 14:05:55;;;;;;;5.40;4.10;;;;;;;;;;5114171;27;20447;-59
2024/02/04 14:08:23;;;;;;;4.70;3.70;;;;;;;;;;5116024;27;20469;-62
2024/02/04 14:10:49;;;;;;;5.70;3.50;;;;;;;;;;5116543;28;20455;-65
2024/02/04 14:13:16;;;;;;;3.60;3.30;;;;;;;;;;5115496;27;20462;-61
2024/02/04 14:15:42;;;;;;;3.83;3.40;;;;;;;;;;5117606;27;20454;-63
2024/02/04 14:18:09;;;;;;;4.67;4.27;;;;;;;;;;5107669;27;20445;-62
2024/02/04 14:20:35;;;;;;;4.40;4.00;;;;;;;;;;5107068;28;20459;-60
2024/02/04 14:23:02;;;;;;;6.87;3.07;;;;;;;;;;5113556;27;20447;-61
2024/02/04 14:25:30;;;;;;;7.50;3.30;;;;;;;;;;5111020;28;20955;-61
2024/02/04 14:27:56;;;;;;;4.03;3.37;;;;;;;;;;5108058;27;20532;-62
2024/02/04 14:30:23;;;;;;;5.13;2.80;;;;;;;;;;5105483;27;20466;-61
2024/02/04 14:32:49;;;;;;;4.40;2.40;;;;;;;;;;5106910;28;20978;-62
2024/02/04 14:35:16;;;;;;;4.70;2.80;;;;;;;;;;5104295;28;20459;-64
2024/02/04 14:37:42;;;;;;;2.67;2.40;;;;;;;;;;5108041;28;20458;-62